createdAt,value
2018-04-07T00:00:32.498Z,99.90
2018-04-07T00:03:02.832Z,99.90
2018-04-07T00:05:33.541Z,99.90
2018-04-07T00:08:03.175Z,99.90
2018-04-07T00:10:32.960Z,99.90
2018-04-07T00:13:02.882Z,99.90
2018-04-07T00:15:32.627Z,99.90
2018-04-07T00:18:02.090Z,99.90
2018-04-07T00:20:31.965Z,99.90
2018-04-07T00:23:02.676Z,99.90
2018-04-07T00:25:32.840Z,99.90
2018-04-07T00:28:02.876Z,99.90
2018-04-07T00:30:32.548Z,99.90
2018-04-07T00:33:02.281Z,99.90
2018-04-07T00:35:31.984Z,99.90
2018-04-07T00:38:01.716Z,99.90
2018-04-07T00:40:31.397Z,99.90
2018-04-07T00:43:01.447Z,99.90
2018-04-07T00:45:31.055Z,99.90
2018-04-07T00:48:05.869Z,99.90
2018-04-07T00:50:35.693Z,99.90
2018-04-07T00:53:05.701Z,99.90
2018-04-07T00:55:36.291Z,99.90
2018-04-07T00:58:06.913Z,99.90
2018-04-07T01:00:37.439Z,99.90
2018-04-07T01:04:26.217Z,99.90
2018-04-07T01:06:56.363Z,99.90
2018-04-07T01:09:25.904Z,99.90
2018-04-07T01:11:55.698Z,99.90
2018-04-07T01:14:25.427Z,99.90
2018-04-07T01:16:59.452Z,99.90
2018-04-07T01:19:28.844Z,99.90
2018-04-07T01:21:58.283Z,99.90
2018-04-07T01:24:28.515Z,99.90
2018-04-07T01:27:00.770Z,99.90
2018-04-07T01:29:30.680Z,99.90
2018-04-07T01:32:00.890Z,99.90
2018-04-07T01:34:30.141Z,99.90
2018-04-07T01:37:05.431Z,99.90
2018-04-07T01:39:35.170Z,99.90
2018-04-07T01:42:04.752Z,99.90
2018-04-07T01:44:34.268Z,99.90
2018-04-07T01:47:04.273Z,99.90
2018-04-07T01:49:33.745Z,99.90
2018-04-07T01:52:04.139Z,99.90
2018-04-07T01:54:33.371Z,99.90
2018-04-07T01:57:03.687Z,99.90
2018-04-07T01:59:33.167Z,99.90
2018-04-07T02:02:03.267Z,99.90
2018-04-07T02:04:33.335Z,99.90
2018-04-07T02:07:02.684Z,99.90
2018-04-07T02:09:32.701Z,99.90
2018-04-07T02:12:02.764Z,99.90
2018-04-07T02:14:32.642Z,99.90
2018-04-07T02:17:02.169Z,99.90
2018-04-07T02:19:31.519Z,99.90
2018-04-07T02:22:00.906Z,99.90
2018-04-07T02:24:30.970Z,99.90
2018-04-07T02:27:00.183Z,99.90
2018-04-07T02:29:29.327Z,99.90
2018-04-07T02:31:58.578Z,99.90
2018-04-07T02:34:27.863Z,99.90
2018-04-07T02:37:00.260Z,99.90
2018-04-07T02:39:32.738Z,99.90
2018-04-07T02:42:02.205Z,99.90
2018-04-07T02:44:31.658Z,99.90
2018-04-07T02:47:00.971Z,99.90
2018-04-07T02:49:30.527Z,99.90
2018-04-07T02:51:59.732Z,99.90
2018-04-07T02:54:29.531Z,99.90
2018-04-07T02:57:05.697Z,99.90
2018-04-07T02:59:34.806Z,99.90
2018-04-07T03:02:04.236Z,99.90
2018-04-07T03:04:34.226Z,99.90
2018-04-07T03:07:03.768Z,99.90
2018-04-07T03:09:32.909Z,99.90
2018-04-07T03:12:02.221Z,99.90
2018-04-07T03:14:32.303Z,99.90
2018-04-07T03:17:01.448Z,99.90
2018-04-07T03:19:30.542Z,99.90
2018-04-07T03:21:59.583Z,99.90
2018-04-07T03:24:29.288Z,99.90
2018-04-07T03:26:58.400Z,99.90
2018-04-07T03:29:28.742Z,99.90
2018-04-07T03:31:59.017Z,99.90
2018-04-07T03:34:28.391Z,99.90
2018-04-07T03:36:57.878Z,99.90
2018-04-07T03:39:27.087Z,99.90
2018-04-07T03:41:56.241Z,99.90
2018-04-07T03:44:26.444Z,99.90
2018-04-07T03:46:55.644Z,99.90
2018-04-07T03:49:25.151Z,99.90
2018-04-07T03:51:54.607Z,99.90
2018-04-07T03:54:24.290Z,99.90
2018-04-07T03:56:54.669Z,99.90
2018-04-07T03:59:23.669Z,99.90
2018-04-07T04:01:53.033Z,99.90
2018-04-07T04:04:22.810Z,99.90
2018-04-07T04:06:52.642Z,99.90
2018-04-07T04:09:22.501Z,99.90
2018-04-07T04:11:51.732Z,99.90
2018-04-07T04:14:21.774Z,99.90
2018-04-07T04:16:51.818Z,99.90
2018-04-07T04:19:20.861Z,99.90
2018-04-07T04:21:49.865Z,99.90
2018-04-07T04:24:20.072Z,99.90
2018-04-07T04:26:49.407Z,99.90
2018-04-07T04:29:18.833Z,99.90
2018-04-07T04:31:47.866Z,99.90
2018-04-07T04:34:17.060Z,99.90
2018-04-07T04:36:46.435Z,99.90
2018-04-07T04:39:15.819Z,99.90
2018-04-07T04:41:44.930Z,99.90
2018-04-07T04:44:13.933Z,99.90
2018-04-07T04:46:42.996Z,99.90
2018-04-07T04:49:12.044Z,99.90
2018-04-07T04:51:46.333Z,99.90
2018-04-07T04:54:21.987Z,99.90
2018-04-07T04:56:51.686Z,99.90
2018-04-07T04:59:20.716Z,99.90
2018-04-07T05:01:49.859Z,99.90
2018-04-07T05:04:18.991Z,99.90
2018-04-07T05:06:48.031Z,99.90
2018-04-07T05:09:18.160Z,99.90
2018-04-07T05:11:53.070Z,99.90
2018-04-07T05:14:23.219Z,99.90
2018-04-07T05:16:52.641Z,99.90
2018-04-07T05:19:21.956Z,99.90
2018-04-07T05:21:51.147Z,99.90
2018-04-07T05:24:20.921Z,99.90
2018-04-07T05:26:53.462Z,99.90
2018-04-07T05:29:22.843Z,99.90
2018-04-07T05:31:56.516Z,99.90
2018-04-07T05:34:26.359Z,99.90
2018-04-07T05:36:55.671Z,99.90
2018-04-07T05:39:25.381Z,99.90
2018-04-07T05:41:54.979Z,99.90
2018-04-07T05:44:25.269Z,99.90
2018-04-07T05:46:54.859Z,99.90
2018-04-07T05:49:24.595Z,99.90
2018-04-07T05:51:54.074Z,99.90
2018-04-07T05:54:23.836Z,99.90
2018-04-07T05:56:53.660Z,99.90
2018-04-07T05:59:22.899Z,99.90
2018-04-07T06:01:52.549Z,99.90
2018-04-07T06:04:22.062Z,99.90
2018-04-07T06:06:51.537Z,99.90
2018-04-07T06:09:21.227Z,99.90
2018-04-07T06:11:50.673Z,99.90
2018-04-07T06:14:20.061Z,99.90
2018-04-07T06:16:50.299Z,99.90
2018-04-07T06:19:19.986Z,99.90
2018-04-07T06:21:49.386Z,99.90
2018-04-07T06:24:18.900Z,99.90
2018-04-07T06:26:48.729Z,99.90
2018-04-07T06:29:18.830Z,99.90
2018-04-07T06:31:48.766Z,99.90
2018-04-07T06:34:18.446Z,99.90
2018-04-07T06:36:48.223Z,99.90
2018-04-07T06:39:18.565Z,99.90
2018-04-07T06:41:48.156Z,99.90
2018-04-07T06:44:18.703Z,96.80
2018-04-07T06:46:49.178Z,94.50
2018-04-07T06:49:19.550Z,92.90
2018-04-07T06:51:49.387Z,92.90
2018-04-07T06:54:19.530Z,93.70
2018-04-07T06:56:49.200Z,93.70
2018-04-07T06:59:18.851Z,94.60
2018-04-07T07:01:48.841Z,96.20
2018-04-07T07:04:18.445Z,95.80
2018-04-07T07:06:49.098Z,96.70
2018-04-07T07:09:18.960Z,96.60
2018-04-07T07:11:49.682Z,96.90
2018-04-07T07:14:19.491Z,96.90
2018-04-07T07:16:50.147Z,95.40
2018-04-07T07:19:20.119Z,95.40
2018-04-07T07:21:49.692Z,97.00
2018-04-07T07:24:19.484Z,95.10
2018-04-07T07:26:49.995Z,96.60
2018-04-07T07:29:20.325Z,90.20
2018-04-07T07:31:50.092Z,90.10
2018-04-07T07:34:19.777Z,88.70
2018-04-07T07:36:51.334Z,88.60
2018-04-07T07:39:21.008Z,88.50
2018-04-07T07:41:52.164Z,89.50
2018-04-07T07:44:22.001Z,89.50
2018-04-07T07:46:51.789Z,90.00
2018-04-07T07:49:21.607Z,85.90
2018-04-07T07:51:51.422Z,82.90
2018-04-07T07:54:21.263Z,81.80
2018-04-07T07:56:50.774Z,83.80
2018-04-07T07:59:20.480Z,82.10
2018-04-07T08:01:51.356Z,79.00
2018-04-07T08:04:21.605Z,77.50
2018-04-07T08:06:51.743Z,77.40
2018-04-07T08:09:21.435Z,78.00
2018-04-07T08:11:51.072Z,77.20
2018-04-07T08:14:21.494Z,74.20
2018-04-07T08:16:51.001Z,74.20
2018-04-07T08:19:21.507Z,74.30
2018-04-07T08:21:51.548Z,74.80
2018-04-07T08:24:21.311Z,73.00
2018-04-07T08:26:51.072Z,73.50
2018-04-07T08:29:20.817Z,70.30
2018-04-07T08:31:51.295Z,69.40
2018-04-07T08:34:21.733Z,69.30
2018-04-07T08:36:51.991Z,69.30
2018-04-07T08:39:22.670Z,68.20
2018-04-07T08:41:53.113Z,70.30
2018-04-07T08:44:23.928Z,68.50
2018-04-07T08:46:53.992Z,68.40
2018-04-07T08:49:24.642Z,66.20
2018-04-07T08:51:55.039Z,64.80
2018-04-07T08:54:24.680Z,64.80
2018-04-07T08:56:55.917Z,67.10
2018-04-07T08:59:26.332Z,65.20
2018-04-07T09:02:02.477Z,65.10
2018-04-07T09:04:32.100Z,63.50
2018-04-07T09:07:01.492Z,63.50
2018-04-07T09:09:31.283Z,62.60
2018-04-07T09:12:01.152Z,62.60
2018-04-07T09:14:30.683Z,62.80
2018-04-07T09:17:00.358Z,61.50
2018-04-07T09:19:38.108Z,59.80
2018-04-07T09:22:07.954Z,59.80
2018-04-07T09:24:37.840Z,60.90
2018-04-07T09:27:08.452Z,59.00
2018-04-07T09:29:38.235Z,58.90
2018-04-07T09:32:09.456Z,59.40
2018-04-07T09:34:39.297Z,55.50
2018-04-07T09:37:08.827Z,56.40
2018-04-07T09:39:38.850Z,55.30
2018-04-07T09:42:08.604Z,56.20
2018-04-07T09:44:38.276Z,55.70
2018-04-07T09:47:13.324Z,53.30
2018-04-07T09:49:43.155Z,53.10
2018-04-07T09:52:13.102Z,52.70
2018-04-07T09:54:42.861Z,54.80
2018-04-07T09:57:12.484Z,51.10
2018-04-07T09:59:42.074Z,49.60
2018-04-07T10:02:16.087Z,48.10
2018-04-07T10:04:46.527Z,49.30
2018-04-07T10:07:16.168Z,49.30
2018-04-07T10:09:46.710Z,46.70
2018-04-07T10:12:16.309Z,47.20
2018-04-07T10:14:46.071Z,45.00
2018-04-07T10:17:16.161Z,45.40
2018-04-07T10:19:46.495Z,44.70
2018-04-07T10:22:17.452Z,44.90
2018-04-07T10:24:47.224Z,44.80
2018-04-07T10:27:23.131Z,44.60
2018-04-07T10:29:56.344Z,45.20
2018-04-07T10:32:26.802Z,46.00
2018-04-07T10:34:57.619Z,45.90
2018-04-07T10:37:29.153Z,46.70
2018-04-07T10:39:59.691Z,43.80
2018-04-07T10:42:30.085Z,43.50
2018-04-07T10:44:59.631Z,43.40
2018-04-07T10:47:29.998Z,43.60
2018-04-07T10:49:59.383Z,43.50
2018-04-07T10:52:29.287Z,43.20
2018-04-07T10:54:58.960Z,44.30
2018-04-07T10:57:38.192Z,44.70
2018-04-07T11:00:08.815Z,44.20
2018-04-07T11:02:38.612Z,44.10
2018-04-07T11:05:08.482Z,45.10
2018-04-07T11:07:38.837Z,45.70
2018-04-07T11:10:08.745Z,45.50
2018-04-07T11:15:15.904Z,47.30
2018-04-07T11:17:46.492Z,48.70
2018-04-07T11:20:16.816Z,48.70
2018-04-07T11:22:47.386Z,47.70
2018-04-07T11:25:17.721Z,49.30
2018-04-07T11:27:48.681Z,47.00
2018-04-07T11:30:18.448Z,46.90
2018-04-07T11:32:49.139Z,47.10
2018-04-07T11:35:18.935Z,46.90
2018-04-07T11:37:49.434Z,49.90
2018-04-07T11:40:19.753Z,48.60
2018-04-07T11:42:50.599Z,47.70
2018-04-07T11:45:21.214Z,47.90
2018-04-07T11:47:50.904Z,47.80
2018-04-07T11:50:21.147Z,48.90
2018-04-07T11:52:51.807Z,49.20
2018-04-07T11:55:21.408Z,49.00
2018-04-07T11:57:51.214Z,48.10
2018-04-07T12:00:21.620Z,49.90
2018-04-07T12:02:52.042Z,49.50
2018-04-07T12:05:21.564Z,49.50
2018-04-07T12:07:52.083Z,49.10
2018-04-07T12:10:21.910Z,49.00
2018-04-07T12:12:59.271Z,49.10
2018-04-07T12:15:28.975Z,47.30
2018-04-07T12:21:00.438Z,46.00
2018-04-07T12:23:32.916Z,46.00
2018-04-07T12:26:07.088Z,48.40
2018-04-07T12:28:38.550Z,47.90
2018-04-07T12:31:08.979Z,46.90
2018-04-07T12:33:38.835Z,47.70
2018-04-07T12:36:09.315Z,48.00
2018-04-07T12:38:39.059Z,48.00
2018-04-07T12:41:15.500Z,48.30
2018-04-07T12:43:45.047Z,48.70
2018-04-07T12:46:14.669Z,46.90
2018-04-07T12:48:45.215Z,47.30
2018-04-07T12:54:16.204Z,46.90
2018-04-07T12:56:45.997Z,46.90
2018-04-07T12:59:16.786Z,48.80
2018-04-07T13:01:47.768Z,49.50
2018-04-07T13:04:18.675Z,46.70
2018-04-07T13:06:48.858Z,46.60
2018-04-07T13:09:18.563Z,45.60
2018-04-07T13:11:49.513Z,45.80
2018-04-07T13:14:19.230Z,45.80
2018-04-07T13:16:48.795Z,45.70
2018-04-07T13:19:18.707Z,45.40
2018-04-07T13:21:48.599Z,45.20
2018-04-07T13:24:18.803Z,44.20
2018-04-07T13:26:49.012Z,43.60
2018-04-07T13:29:19.121Z,44.60
2018-04-07T13:31:48.957Z,43.20
2018-04-07T13:34:18.922Z,44.60
2018-04-07T13:36:49.757Z,44.40
2018-04-07T13:39:19.422Z,45.00
2018-04-07T13:41:49.187Z,46.10
2018-04-07T13:44:18.899Z,45.70
2018-04-07T13:46:48.738Z,46.40
2018-04-07T13:49:18.917Z,45.70
2018-04-07T13:51:48.721Z,46.30
2018-04-07T13:54:19.369Z,46.90
2018-04-07T13:56:49.057Z,46.80
2018-04-07T13:59:18.917Z,46.60
2018-04-07T14:01:48.736Z,46.80
2018-04-07T14:04:18.356Z,47.10
2018-04-07T14:06:47.989Z,47.80
2018-04-07T14:09:18.530Z,46.90
2018-04-07T14:11:49.509Z,49.00
2018-04-07T14:14:19.728Z,49.00
2018-04-07T14:16:50.340Z,46.70
2018-04-07T14:19:20.154Z,46.60
2018-04-07T14:21:49.853Z,46.50
2018-04-07T14:24:20.346Z,47.80
2018-04-07T14:26:50.672Z,45.40
2018-04-07T14:29:21.333Z,47.30
2018-04-07T14:31:50.964Z,47.30
2018-04-07T14:34:20.756Z,47.30
2018-04-07T14:36:51.384Z,46.00
2018-04-07T14:39:21.319Z,46.10
2018-04-07T14:41:52.137Z,46.10
2018-04-07T14:44:21.825Z,46.00
2018-04-07T14:46:51.653Z,46.90
2018-04-07T14:49:21.556Z,47.60
2018-04-07T14:51:51.134Z,46.90
2018-04-07T14:54:20.966Z,46.50
2018-04-07T14:56:51.580Z,45.00
2018-04-07T14:59:21.494Z,45.00
2018-04-07T15:01:51.112Z,46.60
2018-04-07T15:04:21.033Z,45.30
2018-04-07T15:06:51.462Z,48.30
2018-04-07T15:09:22.001Z,45.20
2018-04-07T15:11:52.557Z,46.30
2018-04-07T15:14:22.282Z,46.30
2018-04-07T15:16:52.920Z,48.40
2018-04-07T15:19:22.723Z,48.40
2018-04-07T15:21:52.323Z,46.20
2018-04-07T15:24:22.992Z,46.90
2018-04-07T15:26:52.811Z,46.80
2018-04-07T15:29:22.627Z,46.50
2018-04-07T15:31:53.171Z,46.70
2018-04-07T15:34:22.737Z,46.70
2018-04-07T15:36:52.386Z,48.10
2018-04-07T15:39:22.341Z,46.30
2018-04-07T15:41:51.936Z,46.40
2018-04-07T15:44:21.660Z,48.00
2018-04-07T15:46:51.541Z,48.50
2018-04-07T15:49:22.191Z,48.70
2018-04-07T15:51:52.092Z,48.70
2018-04-07T15:54:22.720Z,48.50
2018-04-07T15:56:52.728Z,47.70
2018-04-07T15:59:22.773Z,46.70
2018-04-07T16:01:53.213Z,46.70
2018-04-07T16:04:22.964Z,46.70
2018-04-07T16:06:52.785Z,47.40
2018-04-07T16:09:22.667Z,46.60
2018-04-07T16:11:52.595Z,47.30
2018-04-07T16:14:22.436Z,46.30
2018-04-07T16:16:53.027Z,47.10
2018-04-07T16:19:22.841Z,47.00
2018-04-07T16:21:52.344Z,47.60
2018-04-07T16:24:28.951Z,47.80
2018-04-07T16:26:59.475Z,46.70
2018-04-07T16:29:29.292Z,46.70
2018-04-07T16:31:58.739Z,47.40
2018-04-07T16:34:28.438Z,47.60
2018-04-07T16:36:58.290Z,46.10
2018-04-07T16:39:28.219Z,47.70
2018-04-07T16:41:58.207Z,46.90
2018-04-07T16:44:28.798Z,46.90
2018-04-07T16:47:02.111Z,46.80
2018-04-07T16:53:11.606Z,46.50
2018-04-07T16:55:41.358Z,46.30
2018-04-07T16:58:10.980Z,46.70
2018-04-07T17:00:40.887Z,47.20
2018-04-07T17:03:10.457Z,47.20
2018-04-07T17:05:40.147Z,49.20
2018-04-07T17:08:10.470Z,48.40
2018-04-07T17:10:39.881Z,48.30
2018-04-07T17:13:09.447Z,48.90
2018-04-07T17:15:39.340Z,48.60
2018-04-07T17:18:09.780Z,48.20
2018-04-07T17:20:39.674Z,48.10
2018-04-07T17:23:10.111Z,48.00
2018-04-07T17:25:39.831Z,47.90
2018-04-07T17:28:11.563Z,48.50
2018-04-07T17:30:41.088Z,49.90
2018-04-07T17:33:11.446Z,48.60
2018-04-07T17:35:42.238Z,49.40
2018-04-07T17:38:16.027Z,49.30
2018-04-07T17:40:46.343Z,48.80
2018-04-07T17:43:15.784Z,48.70
2018-04-07T17:45:45.263Z,49.40
2018-04-07T17:48:15.111Z,48.50
2018-04-07T17:50:44.675Z,48.80
2018-04-07T17:53:44.404Z,49.40
2018-04-07T17:56:49.527Z,50.00
2018-04-07T17:59:19.065Z,50.40
2018-04-07T18:01:50.780Z,50.50
2018-04-07T18:04:30.691Z,50.50
2018-04-07T18:07:00.301Z,51.30
2018-04-07T18:09:29.980Z,51.40
2018-04-07T18:11:59.576Z,52.30
2018-04-07T18:14:30.020Z,52.40
2018-04-07T18:17:00.594Z,53.50
2018-04-07T18:19:30.337Z,53.50
2018-04-07T18:21:59.843Z,53.70
2018-04-07T18:24:30.147Z,54.20
2018-04-07T18:26:59.572Z,54.10
2018-04-07T18:29:29.128Z,54.50
2018-04-07T18:31:58.666Z,55.20
2018-04-07T18:34:29.020Z,55.90
2018-04-07T18:37:00.530Z,55.90
2018-04-07T18:39:30.072Z,55.80
2018-04-07T18:42:00.314Z,56.60
2018-04-07T18:44:29.830Z,56.50
2018-04-07T18:46:59.163Z,58.00
2018-04-07T18:49:28.846Z,57.50
2018-04-07T18:51:58.349Z,57.00
2018-04-07T18:54:27.796Z,57.00
2018-04-07T18:56:57.191Z,57.00
2018-04-07T18:59:26.718Z,57.60
2018-04-07T19:01:56.572Z,58.40
2018-04-07T19:04:26.748Z,60.00
2018-04-07T19:06:56.974Z,61.20
2018-04-07T19:09:27.304Z,61.60
2018-04-07T19:11:56.750Z,61.50
2018-04-07T19:14:27.145Z,62.40
2018-04-07T19:16:56.824Z,62.30
2018-04-07T19:19:26.340Z,62.20
2018-04-07T19:21:56.540Z,62.60
2018-04-07T19:24:26.056Z,62.50
2018-04-07T19:26:55.408Z,62.10
2018-04-07T19:29:24.877Z,62.60
2018-04-07T19:31:54.379Z,62.40
2018-04-07T19:34:23.753Z,62.10
2018-04-07T19:36:53.107Z,62.90
2018-04-07T19:39:23.471Z,64.10
2018-04-07T19:41:52.860Z,64.00
2018-04-07T19:44:23.003Z,64.40
2018-04-07T19:46:53.128Z,64.50
2018-04-07T19:49:22.554Z,64.40
2018-04-07T19:51:52.383Z,65.00
2018-04-07T19:54:22.563Z,65.20
2018-04-07T19:56:52.095Z,65.20
2018-04-07T19:59:30.545Z,67.10
2018-04-07T20:02:00.889Z,68.90
2018-04-07T20:04:31.033Z,70.20
2018-04-07T20:07:01.287Z,71.30
2018-04-07T20:09:30.810Z,71.30
2018-04-07T20:12:01.462Z,72.70
2018-04-07T20:14:31.253Z,72.70
2018-04-07T20:17:01.696Z,74.20
2018-04-07T20:19:32.168Z,77.60
2018-04-07T20:22:01.788Z,77.60
2018-04-07T20:24:32.461Z,86.90
2018-04-07T20:27:02.706Z,89.10
2018-04-07T20:29:32.971Z,90.80
2018-04-07T20:32:02.446Z,90.70
2018-04-07T20:34:32.671Z,90.90
2018-04-07T20:37:02.123Z,90.90
2018-04-07T20:39:32.318Z,83.80
2018-04-07T20:42:13.458Z,83.80
2018-04-07T20:44:42.928Z,86.50
2018-04-07T20:47:12.998Z,80.30
2018-04-07T20:49:42.516Z,80.20
2018-04-07T20:52:12.838Z,74.40
2018-04-07T20:54:42.264Z,74.30
2018-04-07T20:57:12.448Z,71.60
2018-04-07T21:03:13.945Z,71.70
2018-04-07T21:05:43.493Z,71.50
2018-04-07T21:08:13.318Z,70.70
2018-04-07T21:10:42.758Z,69.30
2018-04-07T21:13:12.129Z,70.20
2018-04-07T21:15:41.648Z,71.70
2018-04-07T21:18:11.100Z,72.30
2018-04-07T21:20:41.345Z,72.30
2018-04-07T21:23:10.844Z,72.20
2018-04-07T21:25:40.931Z,73.30
2018-04-07T21:28:12.315Z,76.00
2018-04-07T21:30:41.720Z,75.90
2018-04-07T21:33:11.363Z,74.60
2018-04-07T21:35:40.775Z,77.30
2018-04-07T21:38:10.300Z,73.60
2018-04-07T21:40:39.719Z,76.90
2018-04-07T21:43:09.995Z,73.90
2018-04-07T21:45:39.496Z,73.90
2018-04-07T21:48:09.882Z,75.70
2018-04-07T21:50:39.370Z,75.60
2018-04-07T21:53:10.153Z,77.50
2018-04-07T21:55:39.540Z,77.40
2018-04-07T21:58:09.407Z,78.60
2018-04-07T22:00:38.944Z,80.50
2018-04-07T22:03:08.348Z,83.70
2018-04-07T22:05:37.833Z,87.40
2018-04-07T22:08:07.470Z,88.10
2018-04-07T22:10:37.038Z,86.40
2018-04-07T22:13:07.212Z,86.70
2018-04-07T22:15:36.736Z,87.60
2018-04-07T22:18:10.194Z,84.10
2018-04-07T22:20:39.795Z,83.80
2018-04-07T22:23:10.158Z,77.00
2018-04-07T22:28:33.763Z,74.10
2018-04-07T22:31:03.500Z,74.10
2018-04-07T22:33:34.690Z,74.20
2018-04-07T22:36:04.687Z,74.10
2018-04-07T22:38:35.319Z,79.00
2018-04-07T22:41:06.391Z,89.00
2018-04-07T22:43:36.018Z,89.00
2018-04-07T22:46:11.136Z,91.00
2018-04-07T22:48:41.676Z,96.60
2018-04-07T22:51:11.458Z,96.60
2018-04-07T22:53:41.469Z,99.90
2018-04-07T22:56:10.992Z,99.90
2018-04-07T22:58:40.713Z,99.90
2018-04-07T23:01:10.419Z,99.90
2018-04-07T23:47:21.864Z,99.90
2018-04-07T23:49:52.657Z,99.90
2018-04-07T23:52:23.231Z,99.90
2018-04-07T23:54:53.107Z,99.90
2018-04-07T23:57:23.644Z,99.90
2018-04-07T23:59:54.410Z,99.90
